createdAt,value
2024-05-09T00:00:36.342Z,3.83
2024-05-09T00:03:08.403Z,4.30
2024-05-09T00:05:36.825Z,4.35
2024-05-09T00:08:04.471Z,4.72
2024-05-09T00:10:36.389Z,4.00
2024-05-09T00:13:06.288Z,4.05
2024-05-09T00:15:33.977Z,4.10
2024-05-09T00:18:01.391Z,3.83
2024-05-09T00:20:36.462Z,4.30
2024-05-09T00:23:10.911Z,4.63
2024-05-09T00:25:38.748Z,3.90
2024-05-09T00:28:06.160Z,3.85
2024-05-09T00:30:35.783Z,4.38
2024-05-09T00:33:08.993Z,4.07
2024-05-09T00:35:36.976Z,4.10
2024-05-09T00:38:04.211Z,4.00
2024-05-09T00:40:41.859Z,4.55
2024-05-09T00:43:11.387Z,3.78
2024-05-09T00:45:38.546Z,3.28
2024-05-09T00:48:08.649Z,4.18
2024-05-09T00:50:38.914Z,3.35
2024-05-09T00:53:06.834Z,3.58
2024-05-09T00:55:35.964Z,3.60
2024-05-09T00:58:04.601Z,3.42
2024-05-09T01:00:38.234Z,3.83
2024-05-09T01:03:07.526Z,4.15
2024-05-09T01:05:35.058Z,3.88
2024-05-09T01:08:02.984Z,3.65
2024-05-09T01:10:34.468Z,3.90
2024-05-09T01:13:03.541Z,3.85
2024-05-09T01:15:30.285Z,3.85
2024-05-09T01:17:57.861Z,3.83
2024-05-09T01:20:36.460Z,3.47
2024-05-09T01:23:09.026Z,3.25
2024-05-09T01:25:36.021Z,3.55
2024-05-09T01:28:02.676Z,4.00
2024-05-09T01:30:34.692Z,3.58
2024-05-09T01:33:04.486Z,3.70
2024-05-09T01:35:31.664Z,3.58
2024-05-09T01:37:58.343Z,3.63
2024-05-09T01:40:33.759Z,3.33
2024-05-09T01:43:04.892Z,3.55
2024-05-09T01:45:31.828Z,4.35
2024-05-09T01:47:58.784Z,3.63
2024-05-09T01:50:37.008Z,4.20
2024-05-09T01:53:07.696Z,4.07
2024-05-09T01:55:34.473Z,3.85
2024-05-09T01:58:01.139Z,4.03
2024-05-09T02:00:37.950Z,3.67
2024-05-09T02:03:15.527Z,3.90
2024-05-09T02:05:48.059Z,3.90
2024-05-09T02:08:17.325Z,3.63
2024-05-09T02:10:45.225Z,3.78
2024-05-09T02:13:13.047Z,3.10
2024-05-09T02:15:39.770Z,4.22
2024-05-09T02:18:08.149Z,3.80
2024-05-09T02:20:36.946Z,3.97
2024-05-09T02:23:06.304Z,3.45
2024-05-09T02:25:33.427Z,3.90
2024-05-09T02:28:00.300Z,3.50
2024-05-09T02:30:37.705Z,3.60
2024-05-09T02:33:08.389Z,3.50
2024-05-09T02:35:35.993Z,3.40
2024-05-09T02:38:03.263Z,3.65
2024-05-09T02:40:36.667Z,3.00
2024-05-09T02:43:10.429Z,3.58
2024-05-09T02:45:38.560Z,3.35
2024-05-09T02:48:06.628Z,3.30
2024-05-09T02:50:38.360Z,3.22
2024-05-09T02:53:08.126Z,3.47
2024-05-09T02:55:35.131Z,3.05
2024-05-09T02:58:01.842Z,2.80
2024-05-09T03:00:36.886Z,2.90
2024-05-09T03:03:08.617Z,3.17
2024-05-09T03:05:36.958Z,2.78
2024-05-09T03:08:04.178Z,2.58
2024-05-09T03:10:35.963Z,2.83
2024-05-09T03:13:07.888Z,2.38
2024-05-09T03:15:34.651Z,2.22
2024-05-09T03:18:01.601Z,2.10
2024-05-09T03:20:33.869Z,2.85
2024-05-09T03:23:02.567Z,2.55
2024-05-09T03:25:29.373Z,2.28
2024-05-09T03:27:56.026Z,2.47
2024-05-09T03:30:35.821Z,2.42
2024-05-09T03:33:15.360Z,2.08
2024-05-09T03:35:45.765Z,2.40
2024-05-09T03:38:12.619Z,2.35
2024-05-09T03:40:50.434Z,2.47
2024-05-09T03:43:18.169Z,2.83
2024-05-09T03:45:45.742Z,2.30
2024-05-09T03:48:13.166Z,2.50
2024-05-09T03:50:40.268Z,2.25
2024-05-09T03:53:11.080Z,2.70
2024-05-09T03:55:37.985Z,2.08
2024-05-09T03:58:05.039Z,2.05
2024-05-09T04:00:37.735Z,2.00
2024-05-09T04:03:09.001Z,2.00
2024-05-09T04:05:39.690Z,2.03
2024-05-09T04:08:07.078Z,2.03
2024-05-09T04:10:35.016Z,1.83
2024-05-09T04:13:03.507Z,2.10
2024-05-09T04:15:30.684Z,2.08
2024-05-09T04:17:57.636Z,2.10
2024-05-09T04:20:33.890Z,1.63
2024-05-09T04:23:07.004Z,1.55
2024-05-09T04:25:34.386Z,1.80
2024-05-09T04:28:01.144Z,2.20
2024-05-09T04:30:36.455Z,2.15
2024-05-09T04:33:08.120Z,2.15
2024-05-09T04:35:36.826Z,1.98
2024-05-09T04:38:05.339Z,1.80
2024-05-09T04:40:35.452Z,2.22
2024-05-09T04:43:04.473Z,1.88
2024-05-09T04:45:31.235Z,1.98
2024-05-09T04:47:58.446Z,2.00
2024-05-09T04:50:33.511Z,2.20
2024-05-09T04:53:04.942Z,1.75
2024-05-09T04:55:32.345Z,1.73
2024-05-09T04:57:58.930Z,2.13
2024-05-09T05:00:34.466Z,1.80
2024-05-09T05:03:07.389Z,1.85
2024-05-09T05:05:40.208Z,2.42
2024-05-09T05:08:14.575Z,2.08
2024-05-09T05:10:42.825Z,2.10
2024-05-09T05:13:18.376Z,2.20
2024-05-09T05:15:46.560Z,1.95
2024-05-09T05:18:14.881Z,2.15
2024-05-09T05:20:42.261Z,1.80
2024-05-09T05:23:12.399Z,2.00
2024-05-09T05:25:39.728Z,2.75
2024-05-09T05:28:06.644Z,3.97
2024-05-09T05:30:35.272Z,1.90
2024-05-09T05:33:02.358Z,2.10
2024-05-09T05:35:29.282Z,2.10
2024-05-09T05:37:56.120Z,1.90
2024-05-09T05:40:32.104Z,1.60
2024-05-09T05:43:03.794Z,2.08
2024-05-09T05:45:30.479Z,2.70
2024-05-09T05:47:57.267Z,1.80
2024-05-09T05:50:31.917Z,2.33
2024-05-09T05:53:03.554Z,1.95
2024-05-09T05:55:30.332Z,2.13
2024-05-09T05:57:58.043Z,2.70
2024-05-09T06:00:30.284Z,1.60
2024-05-09T06:03:05.073Z,1.80
2024-05-09T06:05:32.515Z,2.08
2024-05-09T06:07:59.592Z,3.83
2024-05-09T06:10:34.808Z,3.15
2024-05-09T06:13:05.513Z,2.42
2024-05-09T06:15:32.156Z,2.42
2024-05-09T06:17:59.256Z,1.80
2024-05-09T06:20:34.648Z,2.10
2024-05-09T06:23:04.413Z,1.90
2024-05-09T06:25:31.411Z,1.40
2024-05-09T06:27:59.101Z,1.70
2024-05-09T06:30:34.463Z,2.00
2024-05-09T06:33:06.226Z,1.83
2024-05-09T06:35:34.037Z,1.60
2024-05-09T06:38:01.020Z,1.70
2024-05-09T06:40:37.198Z,1.52
2024-05-09T06:43:18.639Z,1.77
2024-05-09T06:45:48.244Z,1.67
2024-05-09T06:48:17.641Z,1.83
2024-05-09T06:50:44.504Z,1.70
2024-05-09T06:53:14.314Z,1.33
2024-05-09T06:55:41.006Z,1.52
2024-05-09T06:58:09.209Z,1.73
2024-05-09T07:00:39.663Z,2.60
2024-05-09T07:03:09.383Z,1.85
2024-05-09T07:05:36.492Z,1.42
2024-05-09T07:08:04.455Z,2.00
2024-05-09T07:10:35.054Z,1.90
2024-05-09T07:13:02.687Z,1.52
2024-05-09T07:15:29.251Z,1.83
2024-05-09T07:17:57.424Z,1.92
2024-05-09T07:20:34.657Z,1.75
2024-05-09T07:23:05.236Z,2.60
2024-05-09T07:25:37.592Z,2.00
2024-05-09T07:28:04.604Z,1.50
2024-05-09T07:30:34.322Z,1.60
2024-05-09T07:33:02.929Z,1.65
2024-05-09T07:35:30.774Z,2.00
2024-05-09T07:37:57.935Z,2.03
2024-05-09T07:40:32.862Z,1.73
2024-05-09T07:43:07.206Z,1.73
2024-05-09T07:52:23.794Z,1.90
2024-05-09T07:53:38.943Z,1.80
2024-05-09T07:56:09.398Z,1.42
2024-05-09T07:58:36.896Z,2.00
2024-05-09T08:01:03.801Z,1.73
2024-05-09T08:03:31.001Z,2.10
2024-05-09T08:05:57.708Z,1.65
2024-05-09T08:08:24.358Z,1.73
2024-05-09T08:10:51.668Z,1.75
2024-05-09T08:13:18.456Z,2.00
2024-05-09T08:15:45.338Z,1.80
2024-05-09T08:18:14.336Z,1.88
2024-05-09T08:20:42.290Z,2.42
2024-05-09T08:23:08.895Z,2.08
2024-05-09T08:25:35.557Z,1.85
2024-05-09T08:28:04.639Z,2.35
2024-05-09T08:30:36.634Z,2.00
2024-05-09T08:33:05.968Z,1.67
2024-05-09T08:35:33.567Z,2.40
2024-05-09T08:38:06.052Z,2.00
2024-05-09T08:40:36.225Z,1.60
2024-05-09T08:43:09.297Z,1.90
2024-05-09T08:45:39.037Z,2.25
2024-05-09T08:48:08.374Z,1.60
2024-05-09T08:50:40.151Z,1.73
2024-05-09T09:00:43.983Z,2.28
2024-05-09T09:03:15.467Z,1.88
2024-05-09T09:05:48.903Z,1.70
2024-05-09T09:08:16.167Z,1.73
2024-05-09T09:10:43.462Z,1.98
2024-05-09T09:13:11.315Z,1.98
2024-05-09T09:16:00.065Z,1.77
2024-05-09T09:18:28.016Z,1.85
2024-05-09T09:20:55.236Z,1.50
2024-05-09T09:23:22.246Z,1.80
2024-05-09T09:25:49.051Z,1.77
2024-05-09T09:28:16.283Z,1.90
2024-05-09T09:30:43.518Z,1.40
2024-05-09T09:33:11.417Z,2.08
2024-05-09T09:35:40.778Z,1.73
2024-05-09T09:38:11.127Z,1.67
2024-05-09T09:40:44.972Z,1.40
2024-05-09T09:43:19.658Z,1.75
2024-05-09T09:48:15.331Z,1.63
2024-05-09T09:50:42.530Z,1.80
2024-05-09T09:53:10.332Z,1.27
2024-05-09T09:55:37.877Z,1.95
2024-05-09T09:58:05.875Z,1.48
2024-05-09T10:00:34.349Z,1.55
2024-05-09T10:03:01.957Z,1.50
2024-05-09T10:05:30.299Z,1.40
2024-05-09T10:08:00.317Z,2.42
2024-05-09T10:10:31.808Z,1.90
2024-05-09T10:13:07.386Z,1.77
2024-05-09T10:15:47.123Z,1.95
2024-05-09T10:18:14.909Z,1.75
2024-05-09T10:20:46.223Z,1.73
2024-05-09T10:23:29.943Z,2.47
2024-05-09T10:26:07.367Z,1.25
2024-05-09T10:28:44.091Z,1.40
2024-05-09T10:31:13.313Z,1.55
2024-05-09T10:33:52.402Z,1.90
2024-05-09T10:36:21.953Z,1.27
2024-05-09T10:38:49.661Z,1.33
2024-05-09T10:41:17.210Z,1.75
2024-05-09T10:43:44.541Z,1.40
2024-05-09T10:46:12.102Z,1.45
2024-05-09T10:48:44.177Z,1.88
2024-05-09T10:51:11.632Z,1.67
2024-05-09T10:53:42.466Z,1.30
2024-05-09T10:56:09.795Z,1.35
2024-05-09T10:58:36.906Z,1.40
2024-05-09T11:01:06.770Z,1.20
2024-05-09T11:03:34.890Z,1.35
2024-05-09T11:06:01.995Z,1.13
2024-05-09T11:08:30.302Z,1.20
2024-05-09T11:10:57.192Z,1.48
2024-05-09T11:13:37.494Z,1.25
2024-05-09T11:16:06.288Z,1.70
2024-05-09T11:18:37.811Z,1.70
2024-05-09T11:21:14.193Z,1.38
2024-05-09T11:23:41.454Z,1.70
2024-05-09T11:26:09.194Z,1.77
2024-05-09T11:28:35.956Z,1.67
2024-05-09T11:31:10.608Z,1.40
2024-05-09T11:33:39.420Z,1.42
2024-05-09T11:36:07.223Z,1.38
2024-05-09T11:38:33.975Z,1.42
2024-05-09T11:41:00.621Z,1.40
2024-05-09T11:43:27.274Z,1.40
2024-05-09T11:45:54.722Z,1.50
2024-05-09T11:48:21.583Z,1.58
2024-05-09T11:50:48.265Z,1.40
2024-05-09T11:53:15.030Z,1.15
2024-05-09T11:55:41.664Z,1.30
2024-05-09T11:58:08.538Z,1.25
2024-05-09T12:00:37.535Z,1.50
2024-05-09T12:03:05.863Z,1.40
2024-05-09T12:05:33.962Z,1.10
2024-05-09T12:08:01.295Z,1.27
2024-05-09T12:10:33.301Z,1.30
2024-05-09T12:13:03.138Z,1.30
2024-05-09T12:15:30.945Z,1.85
2024-05-09T12:18:00.061Z,1.15
2024-05-09T12:20:35.633Z,1.50
2024-05-09T12:23:05.563Z,1.60
2024-05-09T12:25:32.264Z,1.92
2024-05-09T12:27:59.053Z,1.13
2024-05-09T12:30:35.314Z,1.42
2024-05-09T12:33:06.166Z,1.38
2024-05-09T12:35:33.189Z,1.15
2024-05-09T12:38:00.070Z,1.67
2024-05-09T12:40:34.812Z,1.38
2024-05-09T12:43:05.078Z,1.83
2024-05-09T12:45:31.984Z,1.52
2024-05-09T12:47:58.917Z,1.60
2024-05-09T12:50:31.993Z,1.40
2024-05-09T12:53:01.316Z,1.45
2024-05-09T12:55:29.758Z,1.33
2024-05-09T12:57:58.814Z,1.40
2024-05-09T13:00:31.684Z,1.52
2024-05-09T13:03:01.067Z,1.30
2024-05-09T13:05:28.443Z,1.40
2024-05-09T13:07:56.864Z,1.75
2024-05-09T13:10:31.131Z,1.40
2024-05-09T13:13:00.552Z,1.40
2024-05-09T13:15:27.742Z,1.40
2024-05-09T13:17:56.411Z,1.77
2024-05-09T13:20:31.630Z,1.25
2024-05-09T13:23:02.392Z,1.40
2024-05-09T13:25:29.269Z,1.55
2024-05-09T13:27:56.963Z,1.70
2024-05-09T13:30:29.872Z,1.40
2024-05-09T13:33:06.375Z,1.38
2024-05-09T13:35:35.421Z,1.42
2024-05-09T13:38:02.903Z,2.22
2024-05-09T13:40:33.914Z,1.35
2024-05-09T13:43:03.229Z,1.15
2024-05-09T13:45:30.227Z,1.48
2024-05-09T13:47:57.242Z,1.27
2024-05-09T13:50:32.958Z,1.60
2024-05-09T13:53:02.556Z,1.40
2024-05-09T13:55:29.156Z,1.48
2024-05-09T13:57:56.214Z,1.60
2024-05-09T14:00:37.343Z,1.30
2024-05-09T14:03:10.086Z,1.00
2024-05-09T14:05:37.057Z,1.50
2024-05-09T14:08:04.163Z,1.20
2024-05-09T14:10:32.163Z,1.40
2024-05-09T14:13:00.266Z,1.40
2024-05-09T14:15:27.052Z,1.38
2024-05-09T14:17:54.685Z,1.23
2024-05-09T14:22:50.876Z,1.20
2024-05-09T14:25:17.619Z,1.60
2024-05-09T14:27:44.344Z,1.92
2024-05-09T14:30:18.246Z,1.02
2024-05-09T14:32:52.736Z,1.33
2024-05-09T14:35:19.554Z,1.17
2024-05-09T14:37:46.176Z,1.20
2024-05-09T14:40:30.318Z,1.10
2024-05-09T14:43:03.188Z,1.10
2024-05-09T14:45:30.222Z,2.25
2024-05-09T14:47:57.236Z,1.30
2024-05-09T14:50:32.535Z,1.35
2024-05-09T14:53:03.590Z,1.38
2024-05-09T14:55:33.172Z,1.48
2024-05-09T14:58:04.950Z,1.02
2024-05-09T15:00:43.216Z,1.25
2024-05-09T15:03:15.753Z,1.08
2024-05-09T15:05:42.707Z,1.13
2024-05-09T15:08:09.400Z,1.30
2024-05-09T15:10:37.238Z,1.30
2024-05-09T15:13:06.551Z,1.42
2024-05-09T15:15:34.914Z,1.55
2024-05-09T15:18:01.803Z,1.15
2024-05-09T15:20:34.575Z,1.23
2024-05-09T15:23:03.926Z,1.08
2024-05-09T15:25:30.833Z,1.27
2024-05-09T15:27:57.877Z,1.30
2024-05-09T15:30:30.680Z,1.25
2024-05-09T15:33:00.100Z,1.30
2024-05-09T15:35:26.993Z,1.30
2024-05-09T15:37:53.718Z,1.20
2024-05-09T15:40:30.520Z,1.38
2024-05-09T15:43:04.578Z,1.30
2024-05-09T15:45:31.559Z,1.27
2024-05-09T15:47:58.713Z,1.35
2024-05-09T15:50:35.431Z,1.40
2024-05-09T15:53:06.679Z,1.25
2024-05-09T15:55:34.479Z,1.20
2024-05-09T15:58:02.269Z,1.30
2024-05-09T16:00:37.321Z,1.25
2024-05-09T16:03:07.773Z,1.60
2024-05-09T16:05:34.733Z,1.20
2024-05-09T16:08:01.899Z,1.33
2024-05-09T16:10:32.759Z,1.05
2024-05-09T16:13:01.557Z,1.60
2024-05-09T16:15:28.599Z,1.23
2024-05-09T16:17:55.516Z,1.20
2024-05-09T16:20:33.873Z,1.45
2024-05-09T16:23:06.075Z,1.48
2024-05-09T16:25:32.739Z,1.40
2024-05-09T16:27:59.498Z,1.25
2024-05-09T16:30:33.495Z,1.60
2024-05-09T16:33:02.826Z,1.40
2024-05-09T16:35:29.762Z,1.20
2024-05-09T16:37:57.132Z,1.38
2024-05-09T16:40:33.055Z,1.20
2024-05-09T16:43:04.974Z,1.20
2024-05-09T16:45:31.953Z,1.30
2024-05-09T16:47:59.719Z,1.48
2024-05-09T16:50:32.025Z,1.13
2024-05-09T16:53:00.617Z,1.50
2024-05-09T16:55:27.423Z,1.23
2024-05-09T16:57:55.347Z,1.67
2024-05-09T17:00:31.367Z,1.13
2024-05-09T17:03:06.588Z,1.67
2024-05-09T17:05:34.128Z,1.00
2024-05-09T17:08:01.408Z,1.30
2024-05-09T17:10:32.876Z,1.50
2024-05-09T17:13:02.190Z,1.30
2024-05-09T17:15:29.144Z,1.30
2024-05-09T17:17:56.229Z,1.65
2024-05-09T17:20:29.832Z,1.60
2024-05-09T17:23:02.238Z,1.48
2024-05-09T17:25:29.302Z,1.10
2024-05-09T17:27:56.600Z,1.27
2024-05-09T17:30:31.561Z,1.58
2024-05-09T17:33:02.656Z,1.20
2024-05-09T17:35:29.374Z,1.27
2024-05-09T17:37:56.686Z,1.58
2024-05-09T17:42:53.155Z,1.50
2024-05-09T17:45:20.636Z,1.33
2024-05-09T17:47:47.723Z,1.40
2024-05-09T17:50:21.014Z,1.45
2024-05-09T17:52:53.812Z,1.90
2024-05-09T17:55:21.304Z,1.40
2024-05-09T17:57:48.220Z,1.40
2024-05-09T18:00:24.068Z,1.40
2024-05-09T18:02:56.352Z,1.77
2024-05-09T18:05:23.424Z,2.28
2024-05-09T18:07:50.208Z,1.58
2024-05-09T18:10:25.177Z,1.27
2024-05-09T18:12:56.609Z,2.97
2024-05-09T18:15:23.384Z,1.88
2024-05-09T18:17:51.593Z,1.27
2024-05-09T18:20:28.590Z,1.48
2024-05-09T18:23:04.474Z,1.30
2024-05-09T18:25:31.147Z,1.60
2024-05-09T18:27:58.128Z,1.50
2024-05-09T18:30:32.066Z,1.90
2024-05-09T18:33:01.605Z,1.92
2024-05-09T18:35:28.333Z,2.15
2024-05-09T18:37:55.079Z,1.50
2024-05-09T18:40:31.140Z,1.77
2024-05-09T18:43:01.992Z,2.53
2024-05-09T18:45:29.087Z,2.63
2024-05-09T18:47:56.144Z,2.63
2024-05-09T18:50:31.933Z,2.20
2024-05-09T18:53:03.594Z,1.90
2024-05-09T18:55:30.288Z,1.80
2024-05-09T18:57:57.224Z,1.95
2024-05-09T19:00:33.236Z,2.00
2024-05-09T19:03:05.937Z,1.50
2024-05-09T19:05:34.860Z,1.85
2024-05-09T19:08:02.160Z,1.88
2024-05-09T19:10:33.985Z,2.53
2024-05-09T19:13:05.406Z,3.97
2024-05-09T19:15:35.760Z,2.40
2024-05-09T19:18:02.797Z,1.75
2024-05-09T19:20:34.256Z,1.70
2024-05-09T19:23:05.050Z,1.60
2024-05-09T19:25:32.871Z,1.40
2024-05-09T19:28:00.470Z,1.30
2024-05-09T19:30:36.641Z,1.77
2024-05-09T19:33:07.667Z,1.52
2024-05-09T19:35:34.554Z,1.48
2024-05-09T19:38:01.762Z,1.27
2024-05-09T19:40:31.972Z,1.65
2024-05-09T19:43:01.684Z,1.48
2024-05-09T19:45:29.057Z,1.50
2024-05-09T19:47:56.527Z,1.88
2024-05-09T19:50:32.119Z,1.55
2024-05-09T19:53:06.706Z,1.95
2024-05-09T19:55:33.773Z,1.50
2024-05-09T19:58:04.845Z,1.77
2024-05-09T20:00:39.561Z,1.40
2024-05-09T20:03:09.170Z,2.00
2024-05-09T20:05:36.760Z,1.50
2024-05-09T20:08:04.323Z,2.15
2024-05-09T20:10:33.320Z,2.10
2024-05-09T20:13:02.624Z,1.60
2024-05-09T20:15:29.747Z,1.70
2024-05-09T20:17:56.981Z,2.22
2024-05-09T20:20:32.712Z,1.63
2024-05-09T20:23:04.865Z,1.60
2024-05-09T20:25:31.461Z,1.77
2024-05-09T20:27:58.106Z,1.90
2024-05-09T20:30:31.376Z,2.20
2024-05-09T20:33:00.506Z,1.73
2024-05-09T20:35:30.523Z,1.70
2024-05-09T20:37:57.281Z,1.95
2024-05-09T20:40:29.208Z,1.80
2024-05-09T20:43:00.287Z,2.05
2024-05-09T20:45:27.172Z,1.88
2024-05-09T20:47:54.167Z,1.65
2024-05-09T20:50:28.860Z,2.00
2024-05-09T20:53:03.214Z,2.00
2024-05-09T20:55:30.295Z,1.65
2024-05-09T20:57:57.455Z,1.70
2024-05-09T21:00:33.732Z,1.75
2024-05-09T21:03:06.509Z,1.77
2024-05-09T21:05:33.951Z,1.70
2024-05-09T21:08:00.830Z,1.83
2024-05-09T21:10:32.092Z,1.45
2024-05-09T21:13:00.310Z,1.90
2024-05-09T21:15:26.945Z,1.70
2024-05-09T21:17:53.565Z,1.50
2024-05-09T21:20:24.420Z,1.70
2024-05-09T21:22:57.726Z,1.40
2024-05-09T21:25:24.485Z,1.73
2024-05-09T21:27:51.564Z,1.65
2024-05-09T21:30:27.371Z,1.70
2024-05-09T21:32:59.683Z,1.75
2024-05-09T21:35:26.399Z,2.13
2024-05-09T21:37:53.169Z,1.70
2024-05-09T21:40:30.587Z,1.92
2024-05-09T21:43:00.929Z,1.77
2024-05-09T21:45:27.785Z,2.08
2024-05-09T21:47:54.719Z,1.73
2024-05-09T21:50:28.051Z,1.55
2024-05-09T21:55:25.773Z,1.73
2024-05-09T21:57:52.524Z,1.70
2024-05-09T22:00:28.793Z,1.80
2024-05-09T22:03:02.364Z,1.80
2024-05-09T22:05:29.630Z,2.17
2024-05-09T22:07:57.030Z,2.10
2024-05-09T22:10:30.498Z,2.28
2024-05-09T22:13:00.732Z,2.22
2024-05-09T22:15:27.461Z,1.92
2024-05-09T22:17:55.722Z,2.20
2024-05-09T22:20:29.269Z,1.98
2024-05-09T22:23:04.243Z,1.92
2024-05-09T22:25:32.132Z,2.08
2024-05-09T22:28:00.033Z,1.70
2024-05-09T22:30:34.669Z,1.67
2024-05-09T22:33:05.843Z,1.60
2024-05-09T22:35:32.849Z,1.83
2024-05-09T22:37:59.685Z,2.22
2024-05-09T22:40:38.141Z,2.00
2024-05-09T22:43:13.293Z,2.55
2024-05-09T22:45:40.247Z,2.00
2024-05-09T22:48:08.467Z,2.00
2024-05-09T22:50:35.386Z,1.75
2024-05-09T22:53:02.113Z,1.88
2024-05-09T22:55:29.017Z,2.50
2024-05-09T22:57:55.972Z,2.38
2024-05-09T23:00:30.919Z,1.83
2024-05-09T23:03:00.059Z,1.65
2024-05-09T23:05:27.071Z,1.85
2024-05-09T23:07:53.845Z,2.03
2024-05-09T23:10:27.767Z,2.10
2024-05-09T23:12:59.295Z,2.05
2024-05-09T23:15:26.000Z,1.80
2024-05-09T23:17:52.815Z,2.42
2024-05-09T23:20:29.837Z,1.92
2024-05-09T23:23:03.535Z,2.00
2024-05-09T23:25:30.298Z,2.13
2024-05-09T23:27:57.146Z,2.30
2024-05-09T23:30:33.370Z,2.05
2024-05-09T23:33:05.232Z,2.72
2024-05-09T23:35:32.233Z,2.15
2024-05-09T23:37:58.836Z,2.70
2024-05-09T23:40:36.875Z,2.15
2024-05-09T23:43:07.084Z,2.13
2024-05-09T23:45:34.073Z,2.08
2024-05-09T23:48:01.182Z,2.05
2024-05-09T23:50:34.394Z,1.77
2024-05-09T23:53:04.495Z,2.08
2024-05-09T23:55:32.118Z,1.73
2024-05-09T23:57:59.292Z,1.58
